sensor_id;sensor_type;location;lat;lon;timestamp;pressure;altitude;pressure_sealevel;temperature;humidity
29467;BME280;60968;37.490;-122.288;2022-09-20T00:01:11;98122.03;;;19.72;64.26
29467;BME280;60968;37.490;-122.288;2022-09-20T00:04:12;98122.75;;;19.74;64.32
29467;BME280;60968;37.490;-122.288;2022-09-20T00:07:13;98125.78;;;19.55;63.69
29467;BME280;60968;37.490;-122.288;2022-09-20T00:10:14;98122.53;;;19.37;64.64
29467;BME280;60968;37.490;-122.288;2022-09-20T00:13:15;98139.81;;;19.28;65.32
29467;BME280;60968;37.490;-122.288;2022-09-20T00:16:19;98133.41;;;19.18;66.19
29467;BME280;60968;37.490;-122.288;2022-09-20T00:19:21;98135.31;;;19.16;65.13
29467;BME280;60968;37.490;-122.288;2022-09-20T00:22:22;98133.03;;;19.10;64.49
29467;BME280;60968;37.490;-122.288;2022-09-20T00:25:23;98131.34;;;19.09;65.15
29467;BME280;60968;37.490;-122.288;2022-09-20T00:28:24;98132.84;;;19.13;65.06
29467;BME280;60968;37.490;-122.288;2022-09-20T00:31:25;98138.50;;;19.07;65.44
29467;BME280;60968;37.490;-122.288;2022-09-20T00:34:26;98142.88;;;18.93;64.94
29467;BME280;60968;37.490;-122.288;2022-09-20T00:37:27;98152.47;;;18.94;65.10
29467;BME280;60968;37.490;-122.288;2022-09-20T00:40:29;98152.34;;;18.81;65.93
29467;BME280;60968;37.490;-122.288;2022-09-20T00:43:44;98150.41;;;18.71;67.61
29467;BME280;60968;37.490;-122.288;2022-09-20T00:46:47;98146.88;;;18.56;67.69
29467;BME280;60968;37.490;-122.288;2022-09-20T00:49:49;98159.03;;;18.44;68.76
29467;BME280;60968;37.490;-122.288;2022-09-20T00:53:06;98161.44;;;18.32;69.41
29467;BME280;60968;37.490;-122.288;2022-09-20T00:56:12;98156.53;;;18.26;69.28
29467;BME280;60968;37.490;-122.288;2022-09-20T00:59:31;98163.13;;;18.19;69.88
29467;BME280;60968;37.490;-122.288;2022-09-20T01:02:36;98166.66;;;18.04;71.72
29467;BME280;60968;37.490;-122.288;2022-09-20T01:05:41;98163.78;;;17.92;73.00
29467;BME280;60968;37.490;-122.288;2022-09-20T01:08:48;98161.31;;;17.89;73.58
29467;BME280;60968;37.490;-122.288;2022-09-20T01:11:53;98162.94;;;17.76;74.54
29467;BME280;60968;37.490;-122.288;2022-09-20T01:14:56;98159.03;;;17.67;75.41
29467;BME280;60968;37.490;-122.288;2022-09-20T01:17:59;98167.72;;;17.53;76.14
29467;BME280;60968;37.490;-122.288;2022-09-20T01:21:03;98172.06;;;17.54;75.79
29467;BME280;60968;37.490;-122.288;2022-09-20T01:24:21;98173.00;;;17.53;75.76
29467;BME280;60968;37.490;-122.288;2022-09-20T01:27:52;98181.47;;;17.42;76.19
29467;BME280;60968;37.490;-122.288;2022-09-20T01:31:14;98181.25;;;17.47;75.46
29467;BME280;60968;37.490;-122.288;2022-09-20T01:34:22;98181.41;;;17.28;75.13
29467;BME280;60968;37.490;-122.288;2022-09-20T01:37:26;98177.22;;;17.08;75.09
29467;BME280;60968;37.490;-122.288;2022-09-20T01:46:55;98169.97;;;16.95;72.14
29467;BME280;60968;37.490;-122.288;2022-09-20T01:50:14;98167.75;;;16.88;72.73
29467;BME280;60968;37.490;-122.288;2022-09-20T02:04:09;98195.03;;;16.52;77.48
29467;BME280;60968;37.490;-122.288;2022-09-20T02:07:43;98204.47;;;16.38;78.61
29467;BME280;60968;37.490;-122.288;2022-09-20T02:24:21;98219.19;;;15.88;81.88
29467;BME280;60968;37.490;-122.288;2022-09-20T02:27:42;98222.25;;;15.79;82.58
29467;BME280;60968;37.490;-122.288;2022-09-20T02:31:11;98234.81;;;15.72;83.59
29467;BME280;60968;37.490;-122.288;2022-09-20T02:44:51;98228.22;;;15.64;83.15
29467;BME280;60968;37.490;-122.288;2022-09-20T02:48:02;98234.88;;;15.71;83.96
29467;BME280;60968;37.490;-122.288;2022-09-20T02:51:27;98226.78;;;15.75;83.09
29467;BME280;60968;37.490;-122.288;2022-09-20T02:54:56;98231.97;;;15.77;83.09
29467;BME280;60968;37.490;-122.288;2022-09-20T03:10:37;98238.09;;;15.58;84.69
29467;BME280;60968;37.490;-122.288;2022-09-20T03:17:32;98237.59;;;15.50;86.20
29467;BME280;60968;37.490;-122.288;2022-09-20T03:24:03;98249.81;;;15.51;85.01
29467;BME280;60968;37.490;-122.288;2022-09-20T03:33:40;98287.66;;;15.46;84.79
29467;BME280;60968;37.490;-122.288;2022-09-20T03:44:09;98310.59;;;15.42;82.38
29467;BME280;60968;37.490;-122.288;2022-09-20T03:47:26;98316.94;;;15.57;80.86
29467;BME280;60968;37.490;-122.288;2022-09-20T03:50:50;98315.50;;;15.50;79.40
29467;BME280;60968;37.490;-122.288;2022-09-20T04:04:02;98329.19;;;15.37;80.08
29467;BME280;60968;37.490;-122.288;2022-09-20T04:07:17;98331.81;;;15.37;80.66
29467;BME280;60968;37.490;-122.288;2022-09-20T04:13:46;98339.63;;;15.39;80.85
29467;BME280;60968;37.490;-122.288;2022-09-20T04:20:42;98347.22;;;15.24;81.82
29467;BME280;60968;37.490;-122.288;2022-09-20T04:26:59;98344.75;;;15.21;83.21
29467;BME280;60968;37.490;-122.288;2022-09-20T04:30:26;98348.94;;;15.25;83.27
29467;BME280;60968;37.490;-122.288;2022-09-20T04:33:35;98348.03;;;15.26;83.22
29467;BME280;60968;37.490;-122.288;2022-09-20T04:36:56;98345.25;;;15.30;83.33
29467;BME280;60968;37.490;-122.288;2022-09-20T04:50:41;98367.06;;;15.11;85.21
29467;BME280;60968;37.490;-122.288;2022-09-20T05:03:59;98388.84;;;14.70;87.56
29467;BME280;60968;37.490;-122.288;2022-09-20T05:29:01;98398.56;;;14.68;86.38
29467;BME280;60968;37.490;-122.288;2022-09-20T05:35:52;98410.19;;;14.39;88.37
29467;BME280;60968;37.490;-122.288;2022-09-20T05:42:47;98406.22;;;14.51;85.74
29467;BME280;60968;37.490;-122.288;2022-09-20T06:02:21;98416.94;;;13.99;88.40
29467;BME280;60968;37.490;-122.288;2022-09-20T06:05:55;98411.75;;;13.97;88.80
29467;BME280;60968;37.490;-122.288;2022-09-20T06:16:04;98423.53;;;14.09;89.18
29467;BME280;60968;37.490;-122.288;2022-09-20T06:22:54;98423.31;;;14.15;88.18
29467;BME280;60968;37.490;-122.288;2022-09-20T06:26:01;98428.44;;;14.18;87.33
29467;BME280;60968;37.490;-122.288;2022-09-20T06:29:05;98438.06;;;14.18;87.76
29467;BME280;60968;37.490;-122.288;2022-09-20T06:32:10;98439.75;;;14.19;88.06
29467;BME280;60968;37.490;-122.288;2022-09-20T06:35:15;98438.16;;;14.15;88.54
29467;BME280;60968;37.490;-122.288;2022-09-20T06:42:01;98432.31;;;14.08;88.62
29467;BME280;60968;37.490;-122.288;2022-09-20T06:45:03;98435.06;;;14.05;88.45
29467;BME280;60968;37.490;-122.288;2022-09-20T06:48:05;98429.91;;;14.02;88.67
29467;BME280;60968;37.490;-122.288;2022-09-20T06:51:08;98433.34;;;14.04;88.66
29467;BME280;60968;37.490;-122.288;2022-09-20T06:54:15;98436.09;;;14.01;89.45
29467;BME280;60968;37.490;-122.288;2022-09-20T06:57:27;98436.94;;;14.01;90.07
29467;BME280;60968;37.490;-122.288;2022-09-20T07:00:31;98447.41;;;14.01;90.65
29467;BME280;60968;37.490;-122.288;2022-09-20T07:03:32;98445.56;;;14.03;90.22
29467;BME280;60968;37.490;-122.288;2022-09-20T07:06:33;98436.88;;;14.03;90.56
29467;BME280;60968;37.490;-122.288;2022-09-20T07:09:34;98437.69;;;14.05;90.23
29467;BME280;60968;37.490;-122.288;2022-09-20T07:12:34;98441.84;;;14.11;88.99
29467;BME280;60968;37.490;-122.288;2022-09-20T07:15:35;98437.19;;;14.17;88.38
29467;BME280;60968;37.490;-122.288;2022-09-20T07:18:36;98442.28;;;14.22;87.91
29467;BME280;60968;37.490;-122.288;2022-09-20T07:21:37;98437.94;;;14.21;88.05
29467;BME280;60968;37.490;-122.288;2022-09-20T07:24:38;98438.06;;;14.18;88.03
29467;BME280;60968;37.490;-122.288;2022-09-20T07:27:40;98430.16;;;14.19;88.08
29467;BME280;60968;37.490;-122.288;2022-09-20T07:30:41;98442.38;;;14.19;87.91
29467;BME280;60968;37.490;-122.288;2022-09-20T07:33:42;98435.38;;;14.19;87.49
29467;BME280;60968;37.490;-122.288;2022-09-20T07:36:42;98428.38;;;14.20;87.36
29467;BME280;60968;37.490;-122.288;2022-09-20T07:39:44;98437.09;;;14.20;86.92
29467;BME280;60968;37.490;-122.288;2022-09-20T07:42:45;98442.44;;;14.17;86.68
29467;BME280;60968;37.490;-122.288;2022-09-20T07:45:50;98430.94;;;14.21;86.14
29467;BME280;60968;37.490;-122.288;2022-09-20T07:48:51;98435.28;;;14.22;86.16
29467;BME280;60968;37.490;-122.288;2022-09-20T07:51:53;98433.81;;;14.15;86.38
29467;BME280;60968;37.490;-122.288;2022-09-20T07:54:53;98436.41;;;14.15;86.72
29467;BME280;60968;37.490;-122.288;2022-09-20T07:57:54;98443.66;;;14.09;87.08
29467;BME280;60968;37.490;-122.288;2022-09-20T08:00:59;98442.94;;;14.05;87.47
29467;BME280;60968;37.490;-122.288;2022-09-20T08:04:00;98441.22;;;14.04;87.20
29467;BME280;60968;37.490;-122.288;2022-09-20T08:07:01;98443.31;;;13.94;87.56
29467;BME280;60968;37.490;-122.288;2022-09-20T08:10:03;98447.34;;;13.79;88.90
29467;BME280;60968;37.490;-122.288;2022-09-20T08:13:04;98445.59;;;13.80;88.51
29467;BME280;60968;37.490;-122.288;2022-09-20T08:16:07;98446.38;;;13.82;89.64
29467;BME280;60968;37.490;-122.288;2022-09-20T08:19:17;98451.78;;;13.77;89.12
29467;BME280;60968;37.490;-122.288;2022-09-20T08:22:18;98453.88;;;13.67;89.96
29467;BME280;60968;37.490;-122.288;2022-09-20T08:25:19;98459.50;;;13.57;90.83
29467;BME280;60968;37.490;-122.288;2022-09-20T08:28:19;98451.31;;;13.41;91.62
29467;BME280;60968;37.490;-122.288;2022-09-20T08:31:23;98459.63;;;13.27;92.58
29467;BME280;60968;37.490;-122.288;2022-09-20T08:34:24;98455.38;;;13.23;93.41
29467;BME280;60968;37.490;-122.288;2022-09-20T08:37:25;98454.69;;;13.17;93.51
29467;BME280;60968;37.490;-122.288;2022-09-20T08:40:28;98452.16;;;13.14;94.20
29467;BME280;60968;37.490;-122.288;2022-09-20T08:43:34;98447.84;;;13.13;95.35
29467;BME280;60968;37.490;-122.288;2022-09-20T08:46:49;98448.81;;;13.11;96.10
29467;BME280;60968;37.490;-122.288;2022-09-20T08:49:52;98451.69;;;13.03;96.42
29467;BME280;60968;37.490;-122.288;2022-09-20T08:52:56;98451.19;;;12.92;97.71
29467;BME280;60968;37.490;-122.288;2022-09-20T08:56:00;98457.19;;;12.94;97.48
29467;BME280;60968;37.490;-122.288;2022-09-20T08:59:02;98454.56;;;12.95;97.32
29467;BME280;60968;37.490;-122.288;2022-09-20T09:02:15;98450.97;;;12.98;97.22
29467;BME280;60968;37.490;-122.288;2022-09-20T09:05:47;98465.47;;;13.08;97.17
29467;BME280;60968;37.490;-122.288;2022-09-20T09:08:48;98464.09;;;12.96;96.04
29467;BME280;60968;37.490;-122.288;2022-09-20T09:11:52;98465.31;;;12.86;97.12
29467;BME280;60968;37.490;-122.288;2022-09-20T09:14:58;98458.34;;;12.85;98.23
29467;BME280;60968;37.490;-122.288;2022-09-20T09:18:02;98458.47;;;12.82;98.09
29467;BME280;60968;37.490;-122.288;2022-09-20T09:21:05;98458.63;;;12.77;98.42
29467;BME280;60968;37.490;-122.288;2022-09-20T09:24:16;98469.88;;;12.79;98.59
29467;BME280;60968;37.490;-122.288;2022-09-20T09:27:19;98456.91;;;12.76;97.86
29467;BME280;60968;37.490;-122.288;2022-09-20T09:33:28;98463.03;;;12.75;97.98
29467;BME280;60968;37.490;-122.288;2022-09-20T09:36:30;98463.97;;;12.73;98.02
29467;BME280;60968;37.490;-122.288;2022-09-20T09:39:34;98457.13;;;12.68;98.80
29467;BME280;60968;37.490;-122.288;2022-09-20T09:42:35;98467.50;;;12.72;99.34
29467;BME280;60968;37.490;-122.288;2022-09-20T09:45:38;98464.28;;;12.63;99.31
29467;BME280;60968;37.490;-122.288;2022-09-20T09:48:39;98456.59;;;12.59;99.80
29467;BME280;60968;37.490;-122.288;2022-09-20T09:51:40;98453.72;;;12.66;99.34
29467;BME280;60968;37.490;-122.288;2022-09-20T09:54:49;98451.94;;;12.67;99.60
29467;BME280;60968;37.490;-122.288;2022-09-20T09:57:54;98453.63;;;12.69;99.67
29467;BME280;60968;37.490;-122.288;2022-09-20T10:01:01;98449.25;;;12.70;99.40
29467;BME280;60968;37.490;-122.288;2022-09-20T10:07:34;98447.34;;;12.75;99.17
29467;BME280;60968;37.490;-122.288;2022-09-20T10:21:16;98441.94;;;13.08;99.32
29467;BME280;60968;37.490;-122.288;2022-09-20T10:24:26;98448.78;;;13.12;100.00
29467;BME280;60968;37.490;-122.288;2022-09-20T10:27:54;98445.16;;;13.16;100.00
29467;BME280;60968;37.490;-122.288;2022-09-20T10:41:25;98446.16;;;12.85;100.00
29467;BME280;60968;37.490;-122.288;2022-09-20T10:44:38;98437.81;;;12.74;100.00
29467;BME280;60968;37.490;-122.288;2022-09-20T10:48:04;98435.53;;;12.63;100.00
29467;BME280;60968;37.490;-122.288;2022-09-20T10:51:27;98453.97;;;12.59;100.00
29467;BME280;60968;37.490;-122.288;2022-09-20T10:55:29;98451.44;;;12.56;100.00
29467;BME280;60968;37.490;-122.288;2022-09-20T10:59:09;98450.75;;;12.50;100.00
29467;BME280;60968;37.490;-122.288;2022-09-20T11:02:30;98457.75;;;12.48;100.00
29467;BME280;60968;37.490;-122.288;2022-09-20T11:05:45;98459.56;;;12.46;100.00
29467;BME280;60968;37.490;-122.288;2022-09-20T11:08:57;98460.56;;;12.42;100.00
29467;BME280;60968;37.490;-122.288;2022-09-20T11:12:23;98459.47;;;12.49;100.00
29467;BME280;60968;37.490;-122.288;2022-09-20T11:16:04;98447.44;;;12.72;100.00
29467;BME280;60968;37.490;-122.288;2022-09-20T11:19:19;98448.28;;;13.01;100.00
29467;BME280;60968;37.490;-122.288;2022-09-20T11:22:47;98447.75;;;13.16;100.00
29467;BME280;60968;37.490;-122.288;2022-09-20T11:25:56;98449.56;;;13.14;100.00
29467;BME280;60968;37.490;-122.288;2022-09-20T11:29:17;98455.06;;;13.07;100.00
29467;BME280;60968;37.490;-122.288;2022-09-20T11:32:29;98451.00;;;12.96;100.00
29467;BME280;60968;37.490;-122.288;2022-09-20T11:36:21;98456.56;;;12.87;100.00
29467;BME280;60968;37.490;-122.288;2022-09-20T11:39:00;98450.72;;;12.79;100.00
29467;BME280;60968;37.490;-122.288;2022-09-20T11:42:03;98458.72;;;12.74;100.00
29467;BME280;60968;37.490;-122.288;2022-09-20T11:45:09;98458.75;;;12.73;100.00
29467;BME280;60968;37.490;-122.288;2022-09-20T11:51:49;98454.88;;;12.58;100.00
29467;BME280;60968;37.490;-122.288;2022-09-20T11:58:16;98455.28;;;12.44;100.00
29467;BME280;60968;37.490;-122.288;2022-09-20T12:01:38;98455.44;;;12.39;100.00
29467;BME280;60968;37.490;-122.288;2022-09-20T12:04:43;98459.16;;;12.30;100.00
29467;BME280;60968;37.490;-122.288;2022-09-20T12:07:45;98462.66;;;12.31;100.00
29467;BME280;60968;37.490;-122.288;2022-09-20T12:10:59;98458.31;;;12.30;100.00
29467;BME280;60968;37.490;-122.288;2022-09-20T12:14:07;98456.34;;;12.38;100.00
29467;BME280;60968;37.490;-122.288;2022-09-20T12:23:59;98457.44;;;12.31;100.00
29467;BME280;60968;37.490;-122.288;2022-09-20T12:30:24;98453.03;;;12.31;100.00
29467;BME280;60968;37.490;-122.288;2022-09-20T12:37:15;98446.00;;;12.35;100.00
29467;BME280;60968;37.490;-122.288;2022-09-20T12:40:17;98456.28;;;12.40;100.00
29467;BME280;60968;37.490;-122.288;2022-09-20T12:43:21;98454.41;;;12.45;100.00
29467;BME280;60968;37.490;-122.288;2022-09-20T12:46:43;98444.69;;;12.48;100.00
29467;BME280;60968;37.490;-122.288;2022-09-20T12:49:55;98449.81;;;12.51;100.00
29467;BME280;60968;37.490;-122.288;2022-09-20T12:52:57;98450.69;;;12.52;100.00
29467;BME280;60968;37.490;-122.288;2022-09-20T12:59:03;98456.97;;;12.46;100.00
29467;BME280;60968;37.490;-122.288;2022-09-20T13:05:44;98457.06;;;12.43;100.00
29467;BME280;60968;37.490;-122.288;2022-09-20T13:12:00;98471.03;;;12.42;100.00
29467;BME280;60968;37.490;-122.288;2022-09-20T13:15:02;98478.03;;;12.40;100.00
29467;BME280;60968;37.490;-122.288;2022-09-20T13:18:04;98468.56;;;12.38;100.00
29467;BME280;60968;37.490;-122.288;2022-09-20T13:21:06;98478.13;;;12.37;100.00
29467;BME280;60968;37.490;-122.288;2022-09-20T13:24:14;98474.63;;;12.38;100.00
29467;BME280;60968;37.490;-122.288;2022-09-20T13:30:29;98474.78;;;12.32;100.00
29467;BME280;60968;37.490;-122.288;2022-09-20T13:33:30;98470.53;;;12.29;100.00
29467;BME280;60968;37.490;-122.288;2022-09-20T13:36:31;98473.91;;;12.33;100.00
29467;BME280;60968;37.490;-122.288;2022-09-20T13:39:34;98480.00;;;12.32;100.00
29467;BME280;60968;37.490;-122.288;2022-09-20T13:42:36;98476.69;;;12.27;100.00
29467;BME280;60968;37.490;-122.288;2022-09-20T13:45:41;98490.56;;;12.29;100.00
29467;BME280;60968;37.490;-122.288;2022-09-20T13:48:46;98487.16;;;12.27;100.00
29467;BME280;60968;37.490;-122.288;2022-09-20T13:51:47;98489.72;;;12.28;100.00
29467;BME280;60968;37.490;-122.288;2022-09-20T13:54:48;98489.66;;;12.30;100.00
29467;BME280;60968;37.490;-122.288;2022-09-20T13:57:50;98499.91;;;12.38;100.00
29467;BME280;60968;37.490;-122.288;2022-09-20T14:07:05;98492.50;;;12.52;100.00
29467;BME280;60968;37.490;-122.288;2022-09-20T14:10:32;98488.69;;;12.62;100.00
29467;BME280;60968;37.490;-122.288;2022-09-20T14:13:38;98487.47;;;12.74;100.00
29467;BME280;60968;37.490;-122.288;2022-09-20T14:16:42;98494.84;;;12.88;100.00
29467;BME280;60968;37.490;-122.288;2022-09-20T14:19:47;98491.91;;;12.99;100.00
29467;BME280;60968;37.490;-122.288;2022-09-20T14:22:49;98489.69;;;13.13;100.00
29467;BME280;60968;37.490;-122.288;2022-09-20T14:32:51;98498.63;;;13.85;100.00
29467;BME280;60968;37.490;-122.288;2022-09-20T14:35:53;98494.13;;;14.14;100.00
29467;BME280;60968;37.490;-122.288;2022-09-20T14:39:01;98500.19;;;14.38;100.00
29467;BME280;60968;37.490;-122.288;2022-09-20T14:42:03;98501.16;;;14.59;100.00
29467;BME280;60968;37.490;-122.288;2022-09-20T14:45:33;98501.13;;;14.83;100.00
29467;BME280;60968;37.490;-122.288;2022-09-20T14:48:38;98497.78;;;15.01;100.00
29467;BME280;60968;37.490;-122.288;2022-09-20T14:51:40;98499.63;;;15.20;100.00
29467;BME280;60968;37.490;-122.288;2022-09-20T14:54:41;98498.94;;;15.37;99.32
29467;BME280;60968;37.490;-122.288;2022-09-20T14:57:44;98500.75;;;15.57;98.41
29467;BME280;60968;37.490;-122.288;2022-09-20T15:00:50;98513.13;;;16.34;94.90
29467;BME280;60968;37.490;-122.288;2022-09-20T15:03:52;98503.97;;;19.02;78.98
29467;BME280;60968;37.490;-122.288;2022-09-20T15:06:55;98504.13;;;21.45;68.26
29467;BME280;60968;37.490;-122.288;2022-09-20T15:09:56;98496.13;;;22.86;59.65
29467;BME280;60968;37.490;-122.288;2022-09-20T15:12:59;98506.59;;;23.60;55.37
29467;BME280;60968;37.490;-122.288;2022-09-20T15:16:00;98510.63;;;20.86;61.19
29467;BME280;60968;37.490;-122.288;2022-09-20T15:19:01;98505.31;;;19.10;69.24
29467;BME280;60968;37.490;-122.288;2022-09-20T15:22:02;98517.84;;;18.58;72.19
29467;BME280;60968;37.490;-122.288;2022-09-20T15:25:05;98519.56;;;17.92;75.74
29467;BME280;60968;37.490;-122.288;2022-09-20T15:28:12;98515.53;;;17.50;78.83
29467;BME280;60968;37.490;-122.288;2022-09-20T15:31:13;98520.66;;;17.36;79.50
29467;BME280;60968;37.490;-122.288;2022-09-20T15:34:14;98517.31;;;17.32;80.79
29467;BME280;60968;37.490;-122.288;2022-09-20T15:37:16;98520.25;;;17.43;79.15
29467;BME280;60968;37.490;-122.288;2022-09-20T15:40:17;98523.00;;;17.23;80.64
29467;BME280;60968;37.490;-122.288;2022-09-20T15:43:20;98526.75;;;17.19;81.59
29467;BME280;60968;37.490;-122.288;2022-09-20T15:46:23;98520.47;;;17.21;80.51
29467;BME280;60968;37.490;-122.288;2022-09-20T15:49:25;98506.22;;;17.25;81.38
29467;BME280;60968;37.490;-122.288;2022-09-20T15:52:32;98514.44;;;17.19;79.94
29467;BME280;60968;37.490;-122.288;2022-09-20T15:55:35;98519.31;;;17.27;80.49
29467;BME280;60968;37.490;-122.288;2022-09-20T15:58:36;98514.34;;;17.38;80.49
29467;BME280;60968;37.490;-122.288;2022-09-20T16:01:39;98515.94;;;17.60;78.77
29467;BME280;60968;37.490;-122.288;2022-09-20T16:04:43;98520.72;;;17.69;77.82
29467;BME280;60968;37.490;-122.288;2022-09-20T16:07:44;98520.97;;;17.82;77.58
29467;BME280;60968;37.490;-122.288;2022-09-20T16:10:55;98510.13;;;17.71;77.24
29467;BME280;60968;37.490;-122.288;2022-09-20T16:13:57;98517.69;;;17.77;77.53
29467;BME280;60968;37.490;-122.288;2022-09-20T16:16:58;98520.41;;;18.10;75.44
29467;BME280;60968;37.490;-122.288;2022-09-20T16:20:00;98520.75;;;18.20;76.75
29467;BME280;60968;37.490;-122.288;2022-09-20T16:23:02;98525.34;;;18.32;75.64
29467;BME280;60968;37.490;-122.288;2022-09-20T16:26:07;98526.59;;;18.43;75.46
29467;BME280;60968;37.490;-122.288;2022-09-20T16:29:09;98530.41;;;18.53;74.27
29467;BME280;60968;37.490;-122.288;2022-09-20T16:32:10;98531.03;;;18.58;73.57
29467;BME280;60968;37.490;-122.288;2022-09-20T16:35:12;98537.75;;;18.64;72.75
29467;BME280;60968;37.490;-122.288;2022-09-20T16:38:14;98540.97;;;18.53;73.43
29467;BME280;60968;37.490;-122.288;2022-09-20T16:41:15;98543.44;;;18.56;73.55
29467;BME280;60968;37.490;-122.288;2022-09-20T16:44:16;98539.50;;;18.47;74.51
29467;BME280;60968;37.490;-122.288;2022-09-20T16:47:17;98547.78;;;18.57;73.83
29467;BME280;60968;37.490;-122.288;2022-09-20T16:50:18;98552.03;;;18.76;72.23
29467;BME280;60968;37.490;-122.288;2022-09-20T16:53:20;98551.66;;;18.99;70.84
29467;BME280;60968;37.490;-122.288;2022-09-20T16:56:24;98547.00;;;21.24;62.00
29467;BME280;60968;37.490;-122.288;2022-09-20T16:59:25;98535.56;;;24.69;50.29
29467;BME280;60968;37.490;-122.288;2022-09-20T17:02:26;98538.09;;;26.93;42.49
29467;BME280;60968;37.490;-122.288;2022-09-20T17:05:27;98543.06;;;27.17;42.65
29467;BME280;60968;37.490;-122.288;2022-09-20T17:08:28;98538.06;;;29.41;37.46
29467;BME280;60968;37.490;-122.288;2022-09-20T17:11:35;98541.56;;;29.77;35.69
29467;BME280;60968;37.490;-122.288;2022-09-20T17:14:36;98541.06;;;30.00;35.31
29467;BME280;60968;37.490;-122.288;2022-09-20T17:17:38;98539.78;;;30.39;35.79
29467;BME280;60968;37.490;-122.288;2022-09-20T17:20:39;98534.09;;;31.44;32.30
29467;BME280;60968;37.490;-122.288;2022-09-20T17:23:42;98528.19;;;31.40;31.65
29467;BME280;60968;37.490;-122.288;2022-09-20T17:26:44;98529.41;;;31.71;30.93
29467;BME280;60968;37.490;-122.288;2022-09-20T17:29:46;98525.34;;;31.42;31.00
29467;BME280;60968;37.490;-122.288;2022-09-20T17:32:47;98531.28;;;29.73;34.75
29467;BME280;60968;37.490;-122.288;2022-09-20T17:35:51;98534.81;;;31.87;30.14
29467;BME280;60968;37.490;-122.288;2022-09-20T17:38:54;98538.13;;;32.06;31.42
29467;BME280;60968;37.490;-122.288;2022-09-20T17:41:55;98543.53;;;27.71;37.83
29467;BME280;60968;37.490;-122.288;2022-09-20T17:44:58;98542.81;;;27.79;37.99
29467;BME280;60968;37.490;-122.288;2022-09-20T17:47:59;98534.84;;;30.00;33.61
29467;BME280;60968;37.490;-122.288;2022-09-20T17:51:00;98534.09;;;30.76;33.01
29467;BME280;60968;37.490;-122.288;2022-09-20T17:54:02;98531.50;;;30.58;33.30
29467;BME280;60968;37.490;-122.288;2022-09-20T17:57:04;98542.09;;;30.34;32.36
29467;BME280;60968;37.490;-122.288;2022-09-20T18:00:05;98537.50;;;29.55;34.33
29467;BME280;60968;37.490;-122.288;2022-09-20T18:03:06;98541.22;;;27.96;37.52
29467;BME280;60968;37.490;-122.288;2022-09-20T18:06:12;98540.78;;;29.49;34.75
29467;BME280;60968;37.490;-122.288;2022-09-20T18:09:22;98533.16;;;26.78;39.86
29467;BME280;60968;37.490;-122.288;2022-09-20T18:12:23;98542.81;;;24.66;44.37
29467;BME280;60968;37.490;-122.288;2022-09-20T18:15:24;98535.25;;;23.08;49.27
29467;BME280;60968;37.490;-122.288;2022-09-20T18:18:25;98537.34;;;23.16;48.93
29467;BME280;60968;37.490;-122.288;2022-09-20T18:21:28;98537.81;;;22.60;50.70
29467;BME280;60968;37.490;-122.288;2022-09-20T18:24:30;98541.00;;;23.02;49.52
29467;BME280;60968;37.490;-122.288;2022-09-20T18:27:31;98543.19;;;23.21;49.71
29467;BME280;60968;37.490;-122.288;2022-09-20T18:30:32;98547.78;;;23.19;50.53
29467;BME280;60968;37.490;-122.288;2022-09-20T18:33:33;98538.72;;;22.85;50.64
29467;BME280;60968;37.490;-122.288;2022-09-20T18:36:36;98529.97;;;22.58;51.60
29467;BME280;60968;37.490;-122.288;2022-09-20T18:39:37;98528.88;;;22.74;51.13
29467;BME280;60968;37.490;-122.288;2022-09-20T18:42:38;98538.25;;;22.91;50.35
29467;BME280;60968;37.490;-122.288;2022-09-20T18:45:39;98534.50;;;23.06;50.15
29467;BME280;60968;37.490;-122.288;2022-09-20T18:48:53;98542.31;;;23.80;48.86
29467;BME280;60968;37.490;-122.288;2022-09-20T18:51:55;98538.41;;;24.09;47.95
29467;BME280;60968;37.490;-122.288;2022-09-20T18:54:57;98540.00;;;24.34;45.96
29467;BME280;60968;37.490;-122.288;2022-09-20T18:57:59;98542.38;;;23.92;46.74
29467;BME280;60968;37.490;-122.288;2022-09-20T19:04:51;98554.72;;;22.96;50.49
29467;BME280;60968;37.490;-122.288;2022-09-20T19:11:29;98549.28;;;22.73;52.38
29467;BME280;60968;37.490;-122.288;2022-09-20T19:21:20;98552.75;;;21.58;55.60
29467;BME280;60968;37.490;-122.288;2022-09-20T19:24:50;98559.22;;;21.54;56.13
29467;BME280;60968;37.490;-122.288;2022-09-20T19:27:57;98559.25;;;21.39;57.95
29467;BME280;60968;37.490;-122.288;2022-09-20T19:30:59;98567.88;;;21.01;58.74
29467;BME280;60968;37.490;-122.288;2022-09-20T19:34:05;98569.13;;;21.23;58.57
29467;BME280;60968;37.490;-122.288;2022-09-20T19:37:23;98556.72;;;21.91;57.54
29467;BME280;60968;37.490;-122.288;2022-09-20T19:40:46;98554.81;;;22.32;56.74
29467;BME280;60968;37.490;-122.288;2022-09-20T19:44:01;98549.84;;;22.53;56.52
29467;BME280;60968;37.490;-122.288;2022-09-20T19:47:30;98549.66;;;22.93;55.68
29467;BME280;60968;37.490;-122.288;2022-09-20T19:50:42;98547.59;;;23.34;54.71
29467;BME280;60968;37.490;-122.288;2022-09-20T19:53:44;98543.53;;;23.17;52.73
29467;BME280;60968;37.490;-122.288;2022-09-20T19:57:06;98541.53;;;22.70;54.99
29467;BME280;60968;37.490;-122.288;2022-09-20T20:00:14;98542.50;;;22.18;51.72
29467;BME280;60968;37.490;-122.288;2022-09-20T20:03:16;98543.78;;;22.64;52.77
29467;BME280;60968;37.490;-122.288;2022-09-20T20:09:54;98539.44;;;22.87;53.48
29467;BME280;60968;37.490;-122.288;2022-09-20T20:16:05;98538.38;;;22.52;54.35
29467;BME280;60968;37.490;-122.288;2022-09-20T20:19:33;98536.47;;;22.91;53.73